Time;durP1;ratioP1;P1;durP2;ratioP2;P2;SDS_P1;SDS_P2;PMS_P1;PMS_P2;Temp;Humidity;BMP_temperature;BMP_pressure;BME280_temperature;BME280_humidity;BME280_pressure;Samples;Min_cycle;Max_cycle;Signal;HPM_P1;HPM_P2
2023/12/28 00:02:18;;;;;;;2.20;0.80;;;;;;;1.54;100.00;100359.85;109255;1254;67590;-56
2023/12/28 00:04:46;;;;;;;2.30;0.90;;;;;;;1.54;100.00;100364.69;109368;1253;72779;-55
2023/12/28 00:07:13;;;;;;;1.70;0.50;;;;;;;1.53;100.00;100373.34;109364;1253;60988;-55
2023/12/28 00:09:41;;;;;;;1.30;0.60;;;;;;;1.55;100.00;100376.40;109249;1253;59174;-55
2023/12/28 00:12:09;;;;;;;1.70;0.60;;;;;;;1.59;100.00;100382.93;109449;1253;73950;-55
2023/12/28 00:14:36;;;;;;;3.00;0.60;;;;;;;1.64;100.00;100386.83;109362;1253;66280;-57
2023/12/28 00:17:04;;;;;;;1.00;0.40;;;;;;;1.69;100.00;100389.34;109378;1254;72627;-56
2023/12/28 00:19:31;;;;;;;1.70;0.80;;;;;;;1.72;100.00;100390.79;109203;1254;59774;-55
2023/12/28 00:21:59;;;;;;;1.60;0.40;;;;;;;1.73;100.00;100397.93;109364;1254;60006;-55
2023/12/28 00:24:27;;;;;;;1.30;0.50;;;;;;;1.75;100.00;100391.92;109388;1254;73916;-55
2023/12/28 00:26:54;;;;;;;1.90;0.40;;;;;;;1.76;100.00;100393.23;109164;1254;66732;-55
2023/12/28 00:29:22;;;;;;;1.30;0.40;;;;;;;1.76;100.00;100396.52;109179;1254;71119;-55
2023/12/28 00:31:50;;;;;;;1.10;0.40;;;;;;;1.74;100.00;100396.15;109329;1253;59661;-55
2023/12/28 00:34:17;;;;;;;1.40;0.50;;;;;;;1.68;100.00;100392.77;109420;1254;58971;-55
2023/12/28 00:36:45;;;;;;;2.30;0.40;;;;;;;1.61;100.00;100391.30;109370;1254;72716;-55
2023/12/28 00:39:13;;;;;;;1.00;0.30;;;;;;;1.54;100.00;100399.29;109378;1254;66901;-55
2023/12/28 00:41:40;;;;;;;1.70;0.40;;;;;;;1.49;100.00;100402.89;109204;1254;72731;-55
2023/12/28 00:44:09;;;;;;;1.20;0.40;;;;;;;1.45;100.00;100404.26;109114;1256;59243;-55
2023/12/28 00:46:37;;;;;;;1.20;0.40;;;;;;;1.41;100.00;100403.17;109368;1254;60139;-54
2023/12/28 00:49:05;;;;;;;1.30;0.20;;;;;;;1.39;100.00;100404.35;109345;1253;72942;-55
2023/12/28 00:51:34;;;;;;;1.80;0.50;;;;;;;1.38;100.00;100411.59;109229;1254;65764;-54
2023/12/28 00:54:02;;;;;;;2.80;0.70;;;;;;;1.37;100.00;100411.55;109268;1254;72715;-54
2023/12/28 00:56:29;;;;;;;3.70;0.90;;;;;;;1.39;100.00;100415.52;109349;1253;60951;-54
2023/12/28 00:58:57;;;;;;;3.20;1.20;;;;;;;1.41;100.00;100415.82;109167;1254;59257;-55
2023/12/28 01:01:24;;;;;;;2.80;0.90;;;;;;;1.42;100.00;100418.88;109352;1254;73962;-54
2023/12/28 01:03:53;;;;;;;2.50;0.70;;;;;;;1.45;100.00;100421.56;109289;1254;66935;-55
2023/12/28 01:06:21;;;;;;;3.30;0.90;;;;;;;1.47;100.00;100422.38;109222;1254;71432;-55
2023/12/28 01:08:49;;;;;;;3.00;0.90;;;;;;;1.50;100.00;100423.41;109237;1253;60905;-54
2023/12/28 01:11:17;;;;;;;1.70;0.40;;;;;;;1.51;100.00;100425.33;109376;1253;58723;-55
2023/12/28 01:13:45;;;;;;;2.10;0.80;;;;;;;1.52;100.00;100424.80;109373;1253;72693;-54
2023/12/28 01:16:13;;;;;;;1.40;0.40;;;;;;;1.48;100.00;100424.19;109271;1253;65866;-54
2023/12/28 01:18:41;;;;;;;1.60;0.60;;;;;;;1.42;100.00;100423.10;109297;1254;71466;-54
2023/12/28 01:21:09;;;;;;;1.50;0.40;;;;;;;1.36;100.00;100430.63;109357;1253;60929;-54
2023/12/28 01:23:36;;;;;;;0.70;0.20;;;;;;;1.29;100.00;100429.30;109336;1253;58309;-56
2023/12/28 01:26:04;;;;;;;1.10;0.40;;;;;;;1.21;100.00;100434.04;109311;1254;72360;-54
2023/12/28 01:28:32;;;;;;;1.30;0.40;;;;;;;1.12;100.00;100437.95;109367;1253;67034;-54
2023/12/28 01:30:59;;;;;;;1.10;0.40;;;;;;;1.05;100.00;100442.23;109291;1254;71737;-54
2023/12/28 01:33:27;;;;;;;0.70;0.20;;;;;;;0.98;100.00;100443.34;109237;1254;59650;-54
2023/12/28 01:35:55;;;;;;;1.80;0.30;;;;;;;0.92;100.00;100449.58;109035;1254;59639;-54
2023/12/28 01:38:22;;;;;;;1.30;0.30;;;;;;;0.89;100.00;100454.92;109243;1253;72547;-54
2023/12/28 01:40:50;;;;;;;1.00;0.40;;;;;;;0.84;100.00;100458.55;109289;1253;67460;-54
2023/12/28 01:43:20;;;;;;;1.10;0.40;;;;;;;0.81;100.00;100468.89;109373;1252;71123;-55
2023/12/28 01:45:48;;;;;;;1.00;0.40;;;;;;;0.79;100.00;100467.66;109370;1253;61037;-56
2023/12/28 01:48:15;;;;;;;2.00;0.50;;;;;;;0.78;100.00;100472.69;109277;1254;60060;-54
2023/12/28 01:50:43;;;;;;;1.70;0.40;;;;;;;0.77;100.00;100481.55;109146;1253;72647;-54
2023/12/28 01:53:11;;;;;;;0.90;0.30;;;;;;;0.75;100.00;100483.71;109294;1253;66962;-54
2023/12/28 01:55:38;;;;;;;2.30;0.40;;;;;;;0.74;100.00;100484.46;109263;1252;72720;-56
2023/12/28 01:58:06;;;;;;;0.90;0.30;;;;;;;0.74;100.00;100488.59;109139;1254;59138;-53
2023/12/28 02:00:36;;;;;;;0.90;0.30;;;;;;;0.72;100.00;100487.80;109215;1254;60056;-54
2023/12/28 02:03:06;;;;;;;1.10;0.30;;;;;;;0.71;100.00;100489.95;109342;1253;74465;-54
2023/12/28 02:05:34;;;;;;;1.70;0.40;;;;;;;0.70;100.00;100483.85;109179;1254;66917;-54
2023/12/28 02:08:02;;;;;;;1.50;0.40;;;;;;;0.73;100.00;100489.64;109007;1257;72792;-55
2023/12/28 02:10:29;;;;;;;0.90;0.30;;;;;;;0.74;100.00;100489.95;109056;1253;59784;-54
2023/12/28 02:12:57;;;;;;;0.80;0.30;;;;;;;0.73;100.00;100493.42;109203;1253;60072;-53
2023/12/28 02:15:24;;;;;;;1.20;0.40;;;;;;;0.69;100.00;100493.19;109250;1253;72960;-53
2023/12/28 02:18:02;;;;;;;1.20;0.30;;;;;;;0.66;100.00;100503.84;109284;1253;67434;-53
2023/12/28 02:20:30;;;;;;;0.70;0.30;;;;;;;0.64;100.00;100503.67;109146;1253;71691;-53
2023/12/28 02:22:58;;;;;;;1.50;0.40;;;;;;;0.65;100.00;100501.73;109374;1253;59367;-53
2023/12/28 02:25:25;;;;;;;1.80;0.60;;;;;;;0.63;100.00;100505.96;109293;1253;58778;-53
2023/12/28 02:27:53;;;;;;;1.40;0.30;;;;;;;0.60;100.00;100514.74;109379;1253;73933;-53
2023/12/28 02:30:22;;;;;;;1.20;0.30;;;;;;;0.59;100.00;100525.45;109355;1253;66882;-54
2023/12/28 02:33:06;;;;;;;2.00;0.60;;;;;;;0.57;100.00;100522.00;109351;1253;72395;-54
2023/12/28 02:35:55;;;;;;;1.60;0.70;;;;;;;0.55;100.00;100533.11;109199;1253;59360;-53
2023/12/28 02:38:23;;;;;;;2.30;0.60;;;;;;;0.51;100.00;100539.02;109052;1253;58988;-54
2023/12/28 02:40:51;;;;;;;2.20;0.60;;;;;;;0.46;100.00;100543.83;109388;1253;74311;-53
2023/12/28 02:43:19;;;;;;;2.90;0.50;;;;;;;0.39;100.00;100551.66;109182;1253;67241;-54
2023/12/28 02:45:46;;;;;;;2.30;0.80;;;;;;;0.35;100.00;100556.39;109100;1254;71868;-54
2023/12/28 02:48:14;;;;;;;2.20;0.70;;;;;;;0.33;100.00;100558.42;109284;1254;60728;-53
2023/12/28 02:50:42;;;;;;;1.90;0.50;;;;;;;0.29;100.00;100563.52;109237;1253;58907;-53
2023/12/28 02:53:10;;;;;;;2.00;0.60;;;;;;;0.22;100.00;100569.42;109399;1253;74011;-53
2023/12/28 02:55:37;;;;;;;2.20;0.70;;;;;;;0.16;100.00;100575.03;109297;1253;65816;-53
2023/12/28 02:58:05;;;;;;;3.30;0.90;;;;;;;0.12;100.00;100576.31;109359;1253;70478;-53
2023/12/28 03:00:32;;;;;;;2.40;0.70;;;;;;;0.12;100.00;100579.05;109122;1254;171610;-53
2023/12/28 03:03:00;;;;;;;2.00;0.60;;;;;;;0.13;100.00;100579.15;109255;1253;60120;-53
2023/12/28 03:05:28;;;;;;;2.30;0.50;;;;;;;0.13;100.00;100589.23;109274;1253;72969;-53
2023/12/28 03:07:57;;;;;;;1.80;0.50;;;;;;;0.14;100.00;100594.44;109294;1253;67100;-55
2023/12/28 03:10:25;;;;;;;1.60;0.60;;;;;;;0.15;100.00;100597.83;109336;1253;72700;-53
2023/12/28 03:12:52;;;;;;;3.50;0.80;;;;;;;0.20;100.00;100596.92;109165;1253;60965;-53
2023/12/28 03:15:20;;;;;;;3.80;0.90;;;;;;;0.27;100.00;100607.90;109394;1253;58713;-53
2023/12/28 03:17:49;;;;;;;4.60;1.10;;;;;;;0.33;100.00;100610.59;109078;1253;73858;-53
2023/12/28 03:20:17;;;;;;;2.90;0.80;;;;;;;0.39;100.00;100618.35;109273;1253;65624;-55
2023/12/28 03:22:44;;;;;;;2.90;1.00;;;;;;;0.43;100.00;100618.55;109370;1253;72743;-53
2023/12/28 03:25:12;;;;;;;2.10;0.70;;;;;;;0.47;100.00;100626.65;109218;1253;59600;-53
2023/12/28 03:27:39;;;;;;;2.70;1.00;;;;;;;0.49;100.00;100626.02;109383;1253;58874;-53
2023/12/28 03:30:07;;;;;;;1.10;0.40;;;;;;;0.44;100.00;100635.94;109248;1253;73962;-53
2023/12/28 03:32:35;;;;;;;1.60;0.40;;;;;;;0.48;100.00;100634.92;109372;1253;65481;-54
2023/12/28 03:35:04;;;;;;;2.30;0.40;;;;;;;0.53;100.00;100639.04;109253;1253;73201;-53
2023/12/28 03:37:31;;;;;;;1.70;0.50;;;;;;;0.58;100.00;100644.73;109386;1253;59245;-53
2023/12/28 03:39:59;;;;;;;1.60;0.70;;;;;;;0.60;100.00;100649.64;109380;1253;60135;-54
2023/12/28 03:42:28;;;;;;;1.30;0.60;;;;;;;0.67;100.00;100653.27;109309;1253;72657;-55
2023/12/28 03:44:56;;;;;;;1.50;0.60;;;;;;;0.73;100.00;100651.84;109182;1253;65483;-54
2023/12/28 03:47:24;;;;;;;2.00;0.50;;;;;;;0.75;100.00;100652.38;109294;1253;72746;-53
2023/12/28 03:49:52;;;;;;;1.70;0.60;;;;;;;0.73;100.00;100649.59;109323;1253;59715;-54
2023/12/28 03:52:20;;;;;;;1.80;0.50;;;;;;;0.70;100.00;100655.08;109378;1253;60065;-54
2023/12/28 03:54:47;;;;;;;1.70;0.40;;;;;;;0.64;100.00;100653.31;109324;1253;71896;-55
2023/12/28 03:57:15;;;;;;;1.80;0.60;;;;;;;0.54;100.00;100662.79;109380;1253;67016;-53
2023/12/28 03:59:42;;;;;;;1.60;0.60;;;;;;;0.43;100.00;100669.65;109248;1253;72869;-53
2023/12/28 04:02:10;;;;;;;0.80;0.30;;;;;;;0.35;100.00;100673.14;109339;1253;60951;-53
2023/12/28 04:04:39;;;;;;;3.20;0.60;;;;;;;0.29;100.00;100672.87;109106;1253;58204;-53
2023/12/28 04:07:07;;;;;;;2.10;0.70;;;;;;;0.27;100.00;100679.75;109263;1253;74331;-54
2023/12/28 04:09:35;;;;;;;2.20;0.80;;;;;;;0.27;100.00;100674.08;109331;1253;67149;-53
2023/12/28 04:12:03;;;;;;;1.70;0.50;;;;;;;0.30;100.00;100685.65;109029;1253;71434;-53
2023/12/28 04:14:30;;;;;;;1.00;0.30;;;;;;;0.34;100.00;100686.08;109226;1253;61106;-53
2023/12/28 04:16:58;;;;;;;1.90;0.50;;;;;;;0.37;100.00;100693.88;109049;1253;58814;-56
2023/12/28 04:19:26;;;;;;;1.40;0.50;;;;;;;0.38;100.00;100696.05;109250;1253;73849;-53
2023/12/28 04:21:55;;;;;;;1.90;0.70;;;;;;;0.35;100.00;100694.56;109407;1253;66185;-53
2023/12/28 04:24:23;;;;;;;1.60;0.50;;;;;;;0.30;100.00;100704.98;109314;1253;71473;-53
2023/12/28 04:26:51;;;;;;;1.50;0.50;;;;;;;0.23;100.00;100709.73;109282;1253;61103;-53
2023/12/28 04:29:19;;;;;;;1.60;0.50;;;;;;;0.16;100.00;100707.77;109369;1253;58778;-53
2023/12/28 04:31:46;;;;;;;1.00;0.30;;;;;;;0.08;100.00;100708.86;109259;1254;73927;-53
2023/12/28 04:34:14;;;;;;;1.50;0.40;;;;;;;0.01;100.00;100719.23;109279;1253;66230;-53
2023/12/28 04:36:46;;;;;;;1.10;0.40;;;;;;;-0.05;100.00;100721.20;109190;1253;72765;-52
2023/12/28 04:39:14;;;;;;;1.20;0.50;;;;;;;-0.09;100.00;100726.07;109023;1253;59725;-54
2023/12/28 04:41:42;;;;;;;3.00;0.40;;;;;;;-0.12;100.00;100730.75;109290;1253;58768;-53
2023/12/28 04:44:09;;;;;;;1.50;0.50;;;;;;;-0.15;100.00;100735.52;109224;1253;72661;-52
2023/12/28 04:46:42;;;;;;;2.60;0.50;;;;;;;-0.17;100.00;100736.86;109441;1253;65662;-53
2023/12/28 04:49:10;;;;;;;1.80;0.50;;;;;;;-0.19;100.00;100736.45;109398;1253;71645;-54
2023/12/28 04:51:45;;;;;;;2.30;0.50;;;;;;;-0.21;100.00;100740.02;109025;1253;60353;-53
2023/12/28 04:54:12;;;;;;;1.60;0.40;;;;;;;-0.23;100.00;100739.48;109311;1253;58821;-53
2023/12/28 04:56:40;;;;;;;2.00;0.60;;;;;;;-0.22;100.00;100744.40;109294;1254;73931;-53
2023/12/28 04:59:08;;;;;;;2.10;0.60;;;;;;;-0.22;100.00;100746.90;109272;1253;66245;-53
2023/12/28 05:01:43;;;;;;;1.90;0.40;;;;;;;-0.20;100.00;100750.93;109317;1253;72193;-53
2023/12/28 05:04:11;;;;;;;1.40;0.40;;;;;;;-0.20;100.00;100754.13;109376;1253;60963;-53
2023/12/28 05:06:44;;;;;;;3.60;0.80;;;;;;;-0.22;100.00;100759.90;109046;1253;60091;-53
2023/12/28 05:09:13;;;;;;;2.30;0.40;;;;;;;-0.26;100.00;100760.15;109248;1253;73029;-56
2023/12/28 05:11:41;;;;;;;3.30;0.90;;;;;;;-0.32;100.00;100764.63;109357;1253;65705;-53
2023/12/28 05:14:08;;;;;;;3.70;0.90;;;;;;;-0.40;100.00;100768.10;109182;1253;71793;-53
2023/12/28 05:16:37;;;;;;;2.60;0.60;;;;;;;-0.50;100.00;100766.48;109268;1253;61336;-52
2023/12/28 05:19:05;;;;;;;1.80;0.50;;;;;;;-0.58;100.00;100769.92;109255;1253;60012;-53
2023/12/28 05:21:33;;;;;;;3.80;1.60;;;;;;;-0.64;100.00;100776.95;109393;1253;73946;-53
2023/12/28 05:24:00;;;;;;;2.80;0.70;;;;;;;-0.70;100.00;100789.34;109287;1254;66950;-53
2023/12/28 05:26:28;;;;;;;2.50;0.90;;;;;;;-0.75;100.00;100782.45;109272;1253;71592;-53
2023/12/28 05:28:55;;;;;;;2.20;0.90;;;;;;;-0.77;100.00;100788.70;109189;1256;60942;-53
2023/12/28 05:31:23;;;;;;;2.40;0.80;;;;;;;-0.75;100.00;100795.06;109350;1253;58789;-55
2023/12/28 05:33:51;;;;;;;4.00;0.80;;;;;;;-0.70;100.00;100792.92;109344;1253;72784;-52
2023/12/28 05:36:18;;;;;;;2.90;0.80;;;;;;;-0.65;100.00;100798.89;109422;1253;66926;-53
2023/12/28 05:38:46;;;;;;;3.10;0.90;;;;;;;-0.59;100.00;100806.20;109270;1253;72740;-52
2023/12/28 05:41:14;;;;;;;2.30;0.70;;;;;;;-0.53;100.00;100807.34;109284;1253;58209;-52
2023/12/28 05:43:41;;;;;;;2.50;0.60;;;;;;;-0.46;100.00;100813.89;109245;1253;58825;-53
2023/12/28 05:46:09;;;;;;;1.90;0.60;;;;;;;-0.33;100.00;100820.35;109226;1253;72983;-53
2023/12/28 05:48:37;;;;;;;2.00;0.80;;;;;;;-0.07;100.00;100830.33;109244;1253;66317;-52
2023/12/28 05:51:04;;;;;;;2.30;0.60;;;;;;;0.25;100.00;100837.96;109308;1253;72712;-53
2023/12/28 05:53:32;;;;;;;2.10;0.70;;;;;;;0.55;100.00;100844.10;109241;1253;58459;-53
2023/12/28 05:56:03;;;;;;;1.80;0.50;;;;;;;0.78;100.00;100844.30;109361;1253;60103;-53
2023/12/28 05:58:30;;;;;;;2.00;0.60;;;;;;;0.84;100.00;100850.56;109352;1253;73927;-53
2023/12/28 06:00:58;;;;;;;3.30;0.70;;;;;;;0.81;100.00;100859.14;109386;1253;66946;-55
2023/12/28 06:03:28;;;;;;;3.20;0.70;;;;;;;0.81;100.00;100856.73;109352;1253;71510;-54
2023/12/28 06:05:56;;;;;;;2.80;1.00;;;;;;;0.79;100.00;100865.94;109370;1253;58541;-54
2023/12/28 06:08:24;;;;;;;3.40;1.10;;;;;;;0.78;100.00;100869.77;109337;1253;58738;-54
2023/12/28 06:10:54;;;;;;;2.40;0.50;;;;;;;0.78;100.00;100875.05;109391;1253;72630;-54
2023/12/28 06:13:22;;;;;;;2.30;0.50;;;;;;;0.80;100.00;100878.34;109308;1254;66535;-54
2023/12/28 06:15:49;;;;;;;2.00;0.50;;;;;;;0.82;100.00;100881.61;109277;1253;72763;-54
2023/12/28 06:18:17;;;;;;;2.00;0.70;;;;;;;0.83;100.00;100888.58;109251;1253;58227;-54
2023/12/28 06:20:45;;;;;;;3.40;0.50;;;;;;;0.84;100.00;100889.23;109213;1253;60111;-54
2023/12/28 06:23:13;;;;;;;3.40;0.70;;;;;;;0.86;100.00;100887.89;109339;1253;72819;-54
2023/12/28 06:25:40;;;;;;;2.70;0.60;;;;;;;0.88;100.00;100885.35;109380;1253;67293;-54
2023/12/28 06:28:08;;;;;;;2.20;0.70;;;;;;;0.91;100.00;100882.70;109258;1253;72733;-54
2023/12/28 06:30:36;;;;;;;3.60;0.80;;;;;;;0.96;100.00;100882.18;109346;1253;59404;-54
2023/12/28 06:33:03;;;;;;;3.40;0.80;;;;;;;1.01;100.00;100883.06;109291;1253;59088;-54
2023/12/28 06:35:31;;;;;;;1.90;0.70;;;;;;;1.05;100.00;100884.33;109335;1253;73869;-54
2023/12/28 06:37:59;;;;;;;3.10;0.60;;;;;;;1.07;100.00;100887.08;109359;1253;66888;-54
2023/12/28 06:40:27;;;;;;;2.80;0.70;;;;;;;1.10;100.00;100887.05;109398;1253;72034;-54
2023/12/28 06:42:54;;;;;;;2.30;0.60;;;;;;;1.13;100.00;100890.12;109339;1253;58205;-54
2023/12/28 06:45:27;;;;;;;3.60;0.50;;;;;;;1.15;100.00;100889.60;109313;1253;60486;-54
2023/12/28 06:47:55;;;;;;;2.30;0.60;;;;;;;1.18;100.00;100894.22;109274;1253;73293;-54
2023/12/28 06:50:23;;;;;;;3.70;0.60;;;;;;;1.22;100.00;100891.35;109243;1253;65645;-55
2023/12/28 06:52:51;;;;;;;2.00;0.60;;;;;;;1.27;100.00;100888.42;109370;1253;72592;-54
2023/12/28 06:55:18;;;;;;;2.20;0.50;;;;;;;1.31;100.00;100895.85;109222;1253;59379;-55
2023/12/28 06:57:46;;;;;;;2.30;0.70;;;;;;;1.37;100.00;100897.36;109391;1253;58805;-55
2023/12/28 07:00:14;;;;;;;3.50;0.60;;;;;;;1.42;100.00;100891.70;109390;1253;73931;-55
2023/12/28 07:02:42;;;;;;;2.30;0.60;;;;;;;1.46;100.00;100894.45;109383;1253;67055;-55
2023/12/28 07:05:09;;;;;;;2.40;0.90;;;;;;;1.52;100.00;100897.48;109280;1253;71165;-56
2023/12/28 07:07:37;;;;;;;2.40;0.70;;;;;;;1.57;100.00;100900.52;109217;1253;58139;-56
2023/12/28 07:10:05;;;;;;;2.10;0.50;;;;;;;1.64;100.00;100902.60;109232;1253;58726;-55
2023/12/28 07:12:33;;;;;;;3.00;0.50;;;;;;;1.71;100.00;100906.04;109414;1253;73858;-56
2023/12/28 07:15:01;;;;;;;2.20;0.50;;;;;;;1.77;100.00;100899.13;109328;1253;67434;-56
2023/12/28 07:17:28;;;;;;;1.80;0.60;;;;;;;1.84;100.00;100903.23;109180;1253;72726;-57
2023/12/28 07:19:56;;;;;;;1.70;0.60;;;;;;;1.88;100.00;100904.80;109249;1253;59648;-56
2023/12/28 07:22:24;;;;;;;3.50;1.00;;;;;;;1.92;100.00;100910.70;109366;1253;59242;-56
2023/12/28 07:24:51;;;;;;;2.40;0.60;;;;;;;1.97;100.00;100914.29;109346;1253;73341;-56
2023/12/28 07:27:19;;;;;;;3.10;0.90;;;;;;;1.99;100.00;100916.22;109329;1253;65873;-56
2023/12/28 07:29:47;;;;;;;3.80;0.80;;;;;;;2.00;100.00;100915.96;109317;1253;75047;-56
2023/12/28 07:32:15;;;;;;;3.30;0.50;;;;;;;2.01;100.00;100916.23;109331;1253;61950;-56
2023/12/28 07:34:42;;;;;;;2.20;0.70;;;;;;;2.01;100.00;100914.86;109212;1253;61180;-56
2023/12/28 07:37:10;;;;;;;2.80;1.00;;;;;;;2.02;100.00;100915.67;109289;1253;75807;-56
2023/12/28 07:39:38;;;;;;;3.30;0.60;;;;;;;2.01;100.00;100915.70;109257;1253;64860;-56
2023/12/28 07:42:06;;;;;;;2.60;0.80;;;;;;;2.02;100.00;100916.48;109367;1253;72688;-56
2023/12/28 07:44:33;;;;;;;3.00;0.80;;;;;;;2.04;100.00;100917.52;109354;1253;59337;-56
2023/12/28 07:47:01;;;;;;;3.60;0.70;;;;;;;2.09;100.00;100925.94;109341;1253;60450;-57
2023/12/28 07:49:30;;;;;;;2.20;0.50;;;;;;;2.04;100.00;100927.00;109351;1253;74393;-56
2023/12/28 07:51:58;;;;;;;2.10;0.70;;;;;;;2.15;100.00;100924.98;109213;1253;66951;-56
2023/12/28 07:54:26;;;;;;;2.80;0.60;;;;;;;2.20;100.00;100910.88;109221;1253;71441;-55
2023/12/28 07:56:54;;;;;;;3.20;1.00;;;;;;;2.25;100.00;100907.44;109362;1253;58373;-55
2023/12/28 07:59:21;;;;;;;2.20;0.70;;;;;;;2.31;100.00;100904.96;109241;1253;60676;-57
2023/12/28 08:01:49;;;;;;;3.30;1.10;;;;;;;2.33;100.00;100903.09;109312;1253;73963;-55
2023/12/28 08:04:16;;;;;;;3.80;1.20;;;;;;;2.35;100.00;100909.27;109379;1253;66920;-55
2023/12/28 08:06:44;;;;;;;2.80;0.90;;;;;;;2.36;100.00;100916.92;109252;1253;71430;-55
2023/12/28 08:09:12;;;;;;;3.90;1.10;;;;;;;2.36;100.00;100921.55;109243;1253;58157;-56
2023/12/28 08:11:39;;;;;;;2.70;0.80;;;;;;;2.36;100.00;100919.30;109337;1253;58883;-55
2023/12/28 08:14:07;;;;;;;2.20;0.60;;;;;;;2.34;100.00;100920.64;109331;1253;73913;-56
2023/12/28 08:16:35;;;;;;;4.20;1.40;;;;;;;2.32;100.00;100919.09;109213;1253;66936;-57
2023/12/28 08:19:02;;;;;;;3.50;1.00;;;;;;;2.31;100.00;100922.27;109382;1253;72739;-55
2023/12/28 08:21:30;;;;;;;3.00;0.90;;;;;;;2.33;100.00;100922.98;109240;1253;58498;-56
2023/12/28 08:23:58;;;;;;;4.80;1.00;;;;;;;2.34;100.00;100919.98;109337;1253;60071;-55
2023/12/28 08:26:26;;;;;;;4.50;0.90;;;;;;;2.35;100.00;100917.86;109408;1253;73933;-55
2023/12/28 08:28:53;;;;;;;2.30;0.60;;;;;;;2.38;100.00;100922.23;109316;1253;66954;-55
2023/12/28 08:31:21;;;;;;;5.00;1.00;;;;;;;2.45;100.00;100917.80;109170;1253;72429;-56
2023/12/28 08:33:49;;;;;;;3.20;0.90;;;;;;;2.48;100.00;100917.36;109368;1253;59639;-56
2023/12/28 08:36:20;;;;;;;2.60;0.70;;;;;;;2.54;100.00;100917.60;109401;1253;60112;-55
2023/12/28 08:38:47;;;;;;;3.40;1.00;;;;;;;2.63;100.00;100906.31;109392;1253;73935;-57
2023/12/28 08:41:23;;;;;;;3.10;1.00;;;;;;;2.69;100.00;100900.70;109251;1253;67408;-56
2023/12/28 08:43:52;;;;;;;2.70;1.00;;;;;;;2.75;100.00;100900.29;109394;1253;71840;-57
2023/12/28 08:46:21;;;;;;;2.80;0.80;;;;;;;2.80;100.00;100905.02;109268;1253;59813;-54
2023/12/28 08:48:50;;;;;;;4.50;0.90;;;;;;;2.87;100.00;100906.20;109369;1253;62137;-55
2023/12/28 08:51:18;;;;;;;4.60;1.10;;;;;;;2.89;100.00;100901.62;109274;1257;71352;-58
2023/12/28 08:53:46;;;;;;;2.80;1.00;;;;;;;2.95;100.00;100902.72;109256;1253;66940;-55
2023/12/28 08:56:13;;;;;;;3.20;0.90;;;;;;;3.01;100.00;100899.45;109365;1253;71438;-54
2023/12/28 08:58:41;;;;;;;5.00;2.00;;;;;;;3.06;100.00;100895.64;109361;1253;62948;-55
2023/12/28 09:01:18;;;;;;;4.20;1.10;;;;;;;3.10;100.00;100884.20;109398;1253;58973;-55
2023/12/28 09:03:49;;;;;;;3.70;1.40;;;;;;;3.09;100.00;100883.02;109302;1256;73905;-56
2023/12/28 09:06:18;;;;;;;4.20;1.20;;;;;;;3.13;100.00;100879.64;109223;1253;65976;-55
2023/12/28 09:08:50;;;;;;;4.10;1.10;;;;;;;3.08;100.00;100888.94;109384;1253;72889;-55
2023/12/28 09:11:18;;;;;;;5.40;1.40;;;;;;;3.05;100.00;100888.98;109256;1254;59268;-57
2023/12/28 09:13:46;;;;;;;3.80;1.50;;;;;;;3.04;100.00;100893.56;109351;1253;58825;-55
2023/12/28 09:16:14;;;;;;;4.50;1.60;;;;;;;3.06;100.00;100892.02;109335;1253;72929;-55
2023/12/28 09:18:42;;;;;;;2.90;1.20;;;;;;;3.09;100.00;100890.98;109181;1253;66831;-55
2023/12/28 09:21:10;;;;;;;7.40;1.70;;;;;;;3.11;100.00;100894.72;109364;1253;72745;-55
2023/12/28 09:23:40;;;;;;;5.00;1.50;;;;;;;3.14;100.00;100899.79;109167;1253;59016;-55
2023/12/28 09:26:08;;;;;;;4.10;1.40;;;;;;;3.16;100.00;100901.02;109299;1253;60253;-55
2023/12/28 09:28:35;;;;;;;3.80;1.40;;;;;;;3.16;100.00;100902.37;109387;1253;73906;-55
2023/12/28 09:31:03;;;;;;;4.40;1.40;;;;;;;3.20;100.00;100909.24;109210;1253;66941;-55
2023/12/28 09:33:32;;;;;;;4.00;1.40;;;;;;;3.21;100.00;100906.74;109347;1253;72741;-58
2023/12/28 09:36:00;;;;;;;4.70;1.40;;;;;;;3.22;100.00;100908.34;109344;1253;59306;-54
2023/12/28 09:38:28;;;;;;;4.30;1.10;;;;;;;3.28;100.00;100899.77;109300;1253;61697;-54
2023/12/28 09:40:56;;;;;;;4.80;1.30;;;;;;;3.36;100.00;100899.14;109287;1253;73902;-54
2023/12/28 09:43:25;;;;;;;5.30;1.60;;;;;;;3.41;100.00;100898.40;109080;1253;66010;-54
2023/12/28 09:45:54;;;;;;;6.60;1.70;;;;;;;3.47;100.00;100892.64;109342;1253;71411;-54
2023/12/28 09:48:22;;;;;;;7.60;1.70;;;;;;;3.53;100.00;100894.16;109167;1257;59650;-54
2023/12/28 09:50:51;;;;;;;5.60;1.30;;;;;;;3.59;100.00;100892.02;109350;1253;58855;-54
2023/12/28 09:53:18;;;;;;;4.70;1.30;;;;;;;3.62;100.00;100886.92;109395;1253;72605;-54
2023/12/28 09:55:46;;;;;;;4.20;1.40;;;;;;;3.65;100.00;100884.42;109354;1253;66980;-54
2023/12/28 09:58:14;;;;;;;3.80;1.30;;;;;;;3.65;100.00;100884.15;109227;1253;73179;-54
2023/12/28 10:00:43;;;;;;;3.90;1.20;;;;;;;3.64;100.00;100889.72;109220;1253;62019;-54
2023/12/28 10:03:19;;;;;;;5.20;1.70;;;;;;;3.63;100.00;100888.39;109178;1253;59465;-54
2023/12/28 10:05:47;;;;;;;4.40;1.60;;;;;;;3.62;100.00;100886.63;109225;1258;73856;-58
2023/12/28 10:08:15;;;;;;;3.10;1.10;;;;;;;3.67;100.00;100880.04;109279;1253;67412;-54
2023/12/28 10:10:50;;;;;;;5.60;1.60;;;;;;;3.75;100.00;100879.88;109186;1253;74829;-54
2023/12/28 10:13:18;;;;;;;3.80;1.40;;;;;;;3.80;100.00;100881.36;109313;1253;63147;-54
2023/12/28 10:15:46;;;;;;;5.40;1.30;;;;;;;3.83;100.00;100885.08;109359;1253;61406;-55
2023/12/28 10:18:14;;;;;;;5.00;1.70;;;;;;;3.89;100.00;100883.42;109332;1256;77324;-54
2023/12/28 10:20:42;;;;;;;4.80;1.60;;;;;;;3.97;100.00;100886.68;109402;1253;67612;-54
2023/12/28 10:23:10;;;;;;;4.70;1.60;;;;;;;4.03;100.00;100882.92;109386;1253;72721;-55
2023/12/28 10:25:37;;;;;;;4.40;1.60;;;;;;;4.07;100.00;100874.21;109110;1253;58188;-56
2023/12/28 10:28:08;;;;;;;3.80;1.50;;;;;;;4.07;100.00;100869.70;109274;1253;62963;-54
2023/12/28 10:30:36;;;;;;;5.30;1.30;;;;;;;4.07;100.00;100865.77;109320;1253;76257;-56
2023/12/28 10:33:07;;;;;;;3.70;1.50;;;;;;;4.12;100.00;100865.17;109393;1253;65240;-57
2023/12/28 10:35:35;;;;;;;4.40;1.70;;;;;;;4.18;100.00;100871.59;109168;1253;74762;-57
2023/12/28 10:38:04;;;;;;;5.30;2.20;;;;;;;4.25;100.00;100870.14;109237;1253;60860;-55
2023/12/28 10:40:32;;;;;;;4.80;1.40;;;;;;;4.27;100.00;100862.89;109206;1253;58721;-56
2023/12/28 10:43:05;;;;;;;3.40;1.40;;;;;;;4.32;100.00;100861.99;109319;1253;76138;-55
2023/12/28 10:45:33;;;;;;;3.90;1.50;;;;;;;4.35;100.00;100854.00;109115;1253;65374;-55
2023/12/28 10:48:08;;;;;;;4.20;1.80;;;;;;;4.38;100.00;100861.14;109034;1253;73760;-56
2023/12/28 10:50:46;;;;;;;4.60;1.80;;;;;;;4.52;100.00;100855.29;109360;1253;59902;-54
2023/12/28 10:53:17;;;;;;;5.00;1.70;;;;;;;4.79;100.00;100839.11;109392;1253;62134;-55
2023/12/28 10:55:54;;;;;;;5.00;1.80;;;;;;;5.00;100.00;100838.34;109134;1257;72629;-55
2023/12/28 10:58:34;;;;;;;4.10;2.10;;;;;;;5.19;100.00;100833.08;109286;1253;67011;-55
2023/12/28 11:01:02;;;;;;;6.60;2.00;;;;;;;5.38;100.00;100823.09;109175;1253;71428;-57
2023/12/28 11:03:35;;;;;;;5.60;1.70;;;;;;;5.58;100.00;100815.86;109077;1259;59317;-55
2023/12/28 11:06:04;;;;;;;5.60;1.90;;;;;;;5.76;100.00;100824.55;109109;1253;60101;-55
2023/12/28 11:08:32;;;;;;;4.30;1.80;;;;;;;5.84;100.00;100828.98;109413;1253;75934;-56
2023/12/28 11:11:01;;;;;;;5.70;1.90;;;;;;;5.85;100.00;100819.75;109387;1253;70952;-57
2023/12/28 11:13:30;;;;;;;5.50;2.00;;;;;;;5.82;100.00;100818.11;109160;1253;72709;-55
2023/12/28 11:15:57;;;;;;;6.80;1.70;;;;;;;5.86;100.00;100820.05;109320;1253;58764;-55
2023/12/28 11:18:25;;;;;;;4.10;1.60;;;;;;;5.95;100.00;100814.02;109291;1253;59309;-55
2023/12/28 11:20:53;;;;;;;5.30;1.90;;;;;;;6.00;100.00;100811.39;109261;1253;73967;-55
2023/12/28 11:23:21;;;;;;;4.50;1.80;;;;;;;5.88;100.00;100814.63;109270;1253;65493;-56